Time;durP1;ratioP1;P1;durP2;ratioP2;P2;SDS_P1;SDS_P2;PMS_P1;PMS_P2;Temp;Humidity;BMP_temperature;BMP_pressure;BME280_temperature;BME280_humidity;BME280_pressure;Samples;Min_cycle;Max_cycle;Signal;HPM_P1;HPM_P2
2022/10/05 00:01:22;;;;;;;2.40;2.20;;;16.00;65.70;;;;;;5023257;28;20521;-73
2022/10/05 00:03:52;;;;;;;2.40;2.20;;;16.00;65.20;;;;;;5011978;28;20562;-73
2022/10/05 00:06:21;;;;;;;3.13;2.47;;;16.00;65.20;;;;;;5007501;28;20472;-73
2022/10/05 00:08:49;;;;;;;1.90;1.80;;;16.00;65.30;;;;;;5010571;28;20479;-73
2022/10/05 00:11:19;;;;;;;3.20;2.60;;;16.00;65.20;;;;;;5017436;28;20475;-72
2022/10/05 00:13:49;;;;;;;1.97;1.87;;;16.00;65.30;;;;;;5010793;28;20451;-73
2022/10/05 00:16:20;;;;;;;4.73;2.20;;;16.00;65.30;;;;;;5009850;28;20456;-73
2022/10/05 00:18:50;;;;;;;3.00;2.20;;;16.00;65.40;;;;;;5007560;28;20547;-73
2022/10/05 00:21:22;;;;;;;1.63;1.53;;;16.00;65.60;;;;;;5020065;28;20490;-72
2022/10/05 00:23:51;;;;;;;3.50;2.67;;;16.00;65.50;;;;;;5009668;28;20817;-73
2022/10/05 00:26:23;;;;;;;2.93;2.50;;;16.00;65.70;;;;;;4995500;28;20925;-73
2022/10/05 00:28:53;;;;;;;3.37;2.73;;;15.90;65.50;;;;;;5011298;28;21178;-72
2022/10/05 00:31:23;;;;;;;2.13;1.97;;;16.00;65.80;;;;;;5043255;28;20450;-73
2022/10/05 00:33:53;;;;;;;2.77;2.57;;;16.00;65.90;;;;;;5010438;28;20440;-73
2022/10/05 00:36:22;;;;;;;2.10;2.00;;;16.00;66.20;;;;;;5002654;28;20475;-73
2022/10/05 00:38:51;;;;;;;2.87;2.57;;;16.00;66.00;;;;;;5010151;28;20546;-73
2022/10/05 00:41:25;;;;;;;2.80;2.17;;;15.90;65.80;;;;;;5011035;28;20436;-73
2022/10/05 00:44:16;;;;;;;3.27;2.30;;;16.00;66.10;;;;;;4990865;28;20444;-74
2022/10/05 00:46:56;;;;;;;2.37;2.17;;;16.00;66.00;;;;;;5008532;28;20489;-73
2022/10/05 00:49:49;;;;;;;2.63;2.30;;;15.90;65.90;;;;;;5005939;28;20633;-73
2022/10/05 00:52:25;;;;;;;2.60;2.40;;;15.90;65.90;;;;;;5007903;28;20440;-73
2022/10/05 00:55:04;;;;;;;2.93;2.70;;;16.00;66.00;;;;;;5009460;28;20562;-73
2022/10/05 00:57:47;;;;;;;4.47;2.50;;;15.90;65.80;;;;;;5012196;28;20480;-73
2022/10/05 01:00:20;;;;;;;2.90;2.70;;;15.90;65.80;;;;;;4995646;28;20482;-73
2022/10/05 01:02:56;;;;;;;2.73;2.37;;;15.90;65.80;;;;;;5010298;28;20436;-74
2022/10/05 01:05:41;;;;;;;5.17;2.60;;;15.90;65.70;;;;;;5003698;28;20901;-73
2022/10/05 01:08:22;;;;;;;2.60;2.00;;;15.90;65.70;;;;;;5024945;28;20425;-72
2022/10/05 01:10:59;;;;;;;2.40;2.20;;;15.90;65.70;;;;;;5011964;28;20948;-73
2022/10/05 01:13:34;;;;;;;2.30;1.67;;;16.00;65.60;;;;;;5002473;28;20527;-73
2022/10/05 01:16:10;;;;;;;2.53;2.33;;;15.90;65.40;;;;;;5009579;28;20456;-72
2022/10/05 01:18:46;;;;;;;2.00;1.90;;;15.90;65.50;;;;;;5002539;28;20959;-73
2022/10/05 01:21:20;;;;;;;2.53;2.33;;;15.90;65.40;;;;;;5002493;28;20502;-73
2022/10/05 01:24:24;;;;;;;2.13;1.90;;;15.90;65.40;;;;;;5007269;28;20908;-73
2022/10/05 01:27:13;;;;;;;2.23;1.87;;;15.90;65.40;;;;;;4997976;28;20456;-72
2022/10/05 01:29:51;;;;;;;3.33;2.97;;;15.90;65.50;;;;;;4997469;28;20555;-73
2022/10/05 01:32:25;;;;;;;2.33;2.13;;;15.90;65.70;;;;;;5010284;28;20471;-74
2022/10/05 01:35:00;;;;;;;3.40;2.90;;;15.90;66.80;;;;;;5022545;28;20494;-73
2022/10/05 01:37:41;;;;;;;3.80;2.83;;;15.90;65.70;;;;;;5026628;28;21001;-72
2022/10/05 01:40:21;;;;;;;3.30;3.00;;;15.90;65.70;;;;;;5008525;28;20507;-73
2022/10/05 01:43:00;;;;;;;3.40;3.10;;;15.90;65.80;;;;;;5009326;28;20523;-73
2022/10/05 01:45:39;;;;;;;2.30;2.10;;;15.90;65.90;;;;;;5008963;28;20467;-73
2022/10/05 01:48:14;;;;;;;2.90;2.70;;;15.90;65.80;;;;;;5008795;28;20451;-72
2022/10/05 01:50:53;;;;;;;2.70;2.27;;;15.90;65.70;;;;;;5007574;28;20486;-72
2022/10/05 01:53:32;;;;;;;3.00;2.80;;;15.90;65.80;;;;;;5013394;28;20472;-73
2022/10/05 01:56:10;;;;;;;3.07;2.23;;;15.90;65.70;;;;;;5011830;28;20549;-73
2022/10/05 01:58:46;;;;;;;3.80;2.87;;;15.90;65.80;;;;;;5015632;28;20432;-73
2022/10/05 02:01:25;;;;;;;3.40;3.10;;;15.90;65.80;;;;;;5022010;28;20523;-74
2022/10/05 02:03:56;;;;;;;3.23;2.93;;;15.90;65.80;;;;;;5006073;28;21029;-73
2022/10/05 02:06:30;;;;;;;3.33;3.03;;;15.90;65.70;;;;;;5014471;28;20503;-73
2022/10/05 02:09:04;;;;;;;2.87;2.60;;;15.90;65.80;;;;;;5014330;28;20481;-73
2022/10/05 02:11:33;;;;;;;2.47;2.27;;;15.90;65.70;;;;;;5014949;28;20505;-73
2022/10/05 02:14:08;;;;;;;2.97;2.23;;;15.90;65.80;;;;;;5014030;28;20464;-73
2022/10/05 02:16:41;;;;;;;2.13;1.93;;;15.90;65.70;;;;;;5014279;28;20835;-73
2022/10/05 02:19:15;;;;;;;2.53;2.33;;;15.90;65.60;;;;;;5014624;28;20971;-73
2022/10/05 02:21:48;;;;;;;2.43;2.23;;;15.90;65.60;;;;;;5015038;28;20808;-73
2022/10/05 02:24:23;;;;;;;1.90;1.70;;;15.90;65.50;;;;;;5005543;28;20850;-73
2022/10/05 02:26:53;;;;;;;2.60;2.40;;;15.90;65.40;;;;;;5030300;28;20502;-71
2022/10/05 02:29:25;;;;;;;2.50;2.27;;;15.90;65.30;;;;;;5012713;28;20460;-73
2022/10/05 02:32:00;;;;;;;2.70;2.27;;;15.90;65.40;;;;;;5017694;28;21009;-73
2022/10/05 02:34:31;;;;;;;2.20;2.10;;;15.90;65.20;;;;;;5004894;28;20457;-73
2022/10/05 02:37:22;;;;;;;1.70;1.60;;;15.90;65.20;;;;;;5012200;28;21006;-73
2022/10/05 02:40:08;;;;;;;2.20;1.90;;;15.90;65.20;;;;;;5013838;28;20497;-73
2022/10/05 02:42:51;;;;;;;2.17;1.97;;;15.90;65.10;;;;;;5010767;28;20445;-73
2022/10/05 02:45:27;;;;;;;2.17;1.83;;;15.90;65.10;;;;;;5008079;28;20472;-73
2022/10/05 02:48:04;;;;;;;1.80;1.70;;;15.80;65.00;;;;;;5013792;28;20456;-72
2022/10/05 02:50:44;;;;;;;2.80;1.70;;;15.90;65.10;;;;;;5006900;28;20955;-73
2022/10/05 02:53:23;;;;;;;2.67;2.30;;;15.90;65.10;;;;;;5013561;28;20531;-71
2022/10/05 02:56:04;;;;;;;4.00;2.27;;;15.80;65.10;;;;;;5013031;28;20436;-73
2022/10/05 02:58:41;;;;;;;2.10;1.90;;;15.80;65.00;;;;;;5016207;28;20541;-73
2022/10/05 03:01:21;;;;;;;2.30;2.20;;;15.90;65.00;;;;;;5014065;28;20473;-73
2022/10/05 03:04:03;;;;;;;1.97;1.77;;;15.80;64.90;;;;;;5021199;28;20462;-73
2022/10/05 03:06:38;;;;;;;1.70;1.60;;;15.80;64.90;;;;;;5008353;28;20464;-72
2022/10/05 03:09:09;;;;;;;2.80;2.47;;;15.80;64.80;;;;;;5007371;28;20534;-73
2022/10/05 03:11:45;;;;;;;2.20;2.00;;;15.80;64.90;;;;;;5012518;28;20433;-73
2022/10/05 03:14:18;;;;;;;1.87;1.77;;;15.80;64.80;;;;;;5010519;28;20990;-72
2022/10/05 03:16:58;;;;;;;2.03;1.93;;;15.80;64.80;;;;;;5015709;28;20870;-73
2022/10/05 03:19:46;;;;;;;2.30;2.10;;;15.80;64.90;;;;;;5001597;28;20469;-72
2022/10/05 03:22:23;;;;;;;2.57;2.37;;;15.80;64.90;;;;;;5007512;28;20428;-72
2022/10/05 03:25:09;;;;;;;2.80;2.33;;;15.80;65.00;;;;;;5010690;28;20490;-73
2022/10/05 03:27:41;;;;;;;2.50;2.30;;;15.80;65.10;;;;;;5134839;23;20455;-71
2022/10/05 03:30:16;;;;;;;2.30;2.10;;;15.80;65.20;;;;;;5008688;28;20465;-70
2022/10/05 03:32:55;;;;;;;2.37;2.17;;;15.80;65.30;;;;;;5011053;28;20493;-72
2022/10/05 03:35:30;;;;;;;2.57;2.37;;;15.80;65.50;;;;;;5027356;28;20951;-72
2022/10/05 03:38:09;;;;;;;2.73;2.53;;;15.80;65.60;;;;;;5044279;28;20455;-72
2022/10/05 03:40:45;;;;;;;3.23;2.17;;;15.80;65.70;;;;;;5016567;28;20471;-72
2022/10/05 03:43:33;;;;;;;2.40;1.97;;;15.80;65.70;;;;;;5027234;28;20931;-72
2022/10/05 03:46:07;;;;;;;2.60;2.40;;;15.80;65.50;;;;;;5027321;28;20451;-72
2022/10/05 03:48:48;;;;;;;2.73;2.07;;;15.80;65.70;;;;;;5000543;28;21018;-72
2022/10/05 03:51:24;;;;;;;3.00;2.70;;;15.80;65.70;;;;;;5022655;28;20528;-72
2022/10/05 03:53:57;;;;;;;3.77;2.87;;;15.80;65.70;;;;;;5023646;28;20466;-72
2022/10/05 03:56:35;;;;;;;5.93;2.77;;;15.80;65.70;;;;;;5029927;28;20459;-72
2022/10/05 03:59:17;;;;;;;2.63;2.10;;;15.80;65.80;;;;;;5028159;28;20515;-72
2022/10/05 04:01:51;;;;;;;2.53;2.33;;;15.70;65.50;;;;;;5026845;28;20477;-72
2022/10/05 04:04:22;;;;;;;3.00;2.70;;;15.70;65.60;;;;;;5030060;28;20477;-72
2022/10/05 04:06:57;;;;;;;2.27;2.07;;;15.70;65.60;;;;;;5047021;28;20454;-72
2022/10/05 04:09:31;;;;;;;2.57;2.30;;;15.70;65.50;;;;;;5022967;28;20889;-72
2022/10/05 04:12:09;;;;;;;3.17;2.87;;;15.70;65.60;;;;;;5030868;28;20485;-72
2022/10/05 04:14:41;;;;;;;2.60;2.40;;;15.70;67.00;;;;;;5040265;28;20471;-72
2022/10/05 04:17:15;;;;;;;2.77;2.47;;;15.70;65.70;;;;;;5020346;28;20517;-72
2022/10/05 04:19:52;;;;;;;2.30;2.10;;;15.70;65.60;;;;;;5029832;28;20477;-72
2022/10/05 04:22:25;;;;;;;2.80;2.40;;;15.70;65.70;;;;;;5030596;28;20439;-72
2022/10/05 04:25:00;;;;;;;4.27;2.63;;;15.70;65.60;;;;;;5028851;28;20525;-72
2022/10/05 04:27:38;;;;;;;2.30;2.10;;;15.70;65.70;;;;;;5030054;28;20525;-72
2022/10/05 04:30:12;;;;;;;3.00;2.00;;;15.70;65.50;;;;;;5027954;28;20548;-72
2022/10/05 04:32:43;;;;;;;2.87;2.67;;;15.70;65.50;;;;;;5028613;28;20446;-72
2022/10/05 04:35:49;;;;;;;2.93;2.70;;;15.70;65.50;;;;;;5027988;28;20685;-72
2022/10/05 04:38:51;;;;;;;2.00;1.80;;;15.70;65.40;;;;;;5017195;28;20509;-72
2022/10/05 04:41:48;;;;;;;2.90;2.70;;;15.70;65.40;;;;;;5025285;28;20501;-72
2022/10/05 04:44:33;;;;;;;2.60;2.40;;;15.70;65.40;;;;;;5037775;28;20479;-72
2022/10/05 04:47:27;;;;;;;2.90;2.70;;;15.70;65.40;;;;;;5029393;28;20467;-72
2022/10/05 04:50:24;;;;;;;2.83;2.63;;;15.70;65.50;;;;;;5026883;28;21029;-72
2022/10/05 04:53:13;;;;;;;2.57;2.37;;;15.70;65.40;;;;;;5044755;28;20439;-72
2022/10/05 04:55:53;;;;;;;2.10;1.90;;;15.70;65.50;;;;;;5036802;28;20451;-72
2022/10/05 04:58:33;;;;;;;2.30;2.10;;;15.70;65.60;;;;;;5027148;28;20462;-72
2022/10/05 05:01:27;;;;;;;2.67;2.47;;;15.60;65.40;;;;;;5027610;28;20467;-72
2022/10/05 05:04:19;;;;;;;2.03;1.90;;;15.60;65.50;;;;;;5018290;28;20501;-72
2022/10/05 05:07:02;;;;;;;5.73;2.33;;;15.60;65.50;;;;;;5029373;28;20463;-72
2022/10/05 05:09:56;;;;;;;2.67;2.47;;;15.60;65.40;;;;;;5046012;28;20498;-72
2022/10/05 05:12:42;;;;;;;2.93;2.63;;;15.60;65.30;;;;;;5006504;28;20538;-72
2022/10/05 05:15:35;;;;;;;2.53;2.37;;;15.60;65.30;;;;;;5026990;28;20904;-72
2022/10/05 05:18:39;;;;;;;2.70;2.50;;;15.60;65.30;;;;;;5021276;28;20958;-72
2022/10/05 05:21:17;;;;;;;2.20;2.00;;;15.60;65.40;;;;;;5034528;28;20459;-72
2022/10/05 05:23:53;;;;;;;2.67;2.47;;;15.60;65.50;;;;;;5024425;28;20477;-72
2022/10/05 05:26:29;;;;;;;2.70;2.27;;;15.60;65.40;;;;;;5020801;28;20538;-72
2022/10/05 05:29:14;;;;;;;3.20;2.33;;;15.60;65.60;;;;;;5030007;28;20522;-72
2022/10/05 05:31:49;;;;;;;2.53;2.33;;;15.60;65.60;;;;;;5033031;28;20497;-72
2022/10/05 05:34:36;;;;;;;2.47;2.27;;;15.60;65.70;;;;;;5032982;28;21012;-72
2022/10/05 05:37:10;;;;;;;2.33;2.13;;;15.60;65.70;;;;;;5025919;28;20508;-72
2022/10/05 05:39:46;;;;;;;2.63;2.43;;;15.50;65.70;;;;;;5027820;28;20474;-72
2022/10/05 05:42:46;;;;;;;2.53;2.30;;;15.50;65.70;;;;;;5032153;28;20790;-72
2022/10/05 05:45:23;;;;;;;2.60;2.40;;;15.50;65.70;;;;;;5049925;28;20467;-72
2022/10/05 05:47:55;;;;;;;3.10;2.80;;;15.50;65.70;;;;;;5033095;28;20469;-72
2022/10/05 05:50:41;;;;;;;2.93;2.30;;;15.50;65.50;;;;;;5009892;28;20463;-72
2022/10/05 05:53:17;;;;;;;3.17;2.87;;;15.50;65.50;;;;;;5014481;28;20442;-72
2022/10/05 05:55:48;;;;;;;2.67;2.10;;;15.50;65.50;;;;;;5025400;28;20427;-72
2022/10/05 05:58:23;;;;;;;2.23;2.03;;;15.50;65.60;;;;;;5025158;28;20583;-72
2022/10/05 06:01:01;;;;;;;3.00;2.80;;;15.50;65.60;;;;;;5013433;28;20447;-71
2022/10/05 06:03:37;;;;;;;3.13;2.93;;;15.50;65.70;;;;;;5022166;28;20523;-72
2022/10/05 06:06:10;;;;;;;3.80;2.80;;;15.50;65.60;;;;;;5029242;28;20454;-72
2022/10/05 06:08:43;;;;;;;2.73;2.47;;;15.50;65.70;;;;;;5027054;28;20524;-72
2022/10/05 06:11:41;;;;;;;2.60;2.40;;;15.50;65.70;;;;;;5044399;28;20434;-72
2022/10/05 06:14:14;;;;;;;3.83;2.90;;;15.50;65.70;;;;;;5056207;28;20449;-72
2022/10/05 06:16:51;;;;;;;4.03;2.70;;;15.50;65.70;;;;;;5040429;28;20462;-71
2022/10/05 06:19:23;;;;;;;2.77;2.23;;;15.50;65.70;;;;;;5030376;28;20474;-72
2022/10/05 06:21:59;;;;;;;2.53;2.33;;;15.50;65.70;;;;;;5024219;28;20499;-72
2022/10/05 06:24:34;;;;;;;2.70;2.50;;;15.50;65.70;;;;;;5032313;28;20508;-72
2022/10/05 06:27:35;;;;;;;3.13;2.40;;;15.50;65.90;;;;;;5030659;28;20458;-72
2022/10/05 06:30:09;;;;;;;2.73;2.53;;;15.50;66.00;;;;;;4998322;28;20829;-72
2022/10/05 06:33:04;;;;;;;2.53;2.33;;;15.50;66.00;;;;;;5029488;28;20423;-72
2022/10/05 06:35:48;;;;;;;2.40;2.20;;;15.50;65.90;;;;;;5032465;28;20451;-72
2022/10/05 06:38:34;;;;;;;3.40;2.30;;;15.50;65.80;;;;;;5024098;28;20437;-72
2022/10/05 06:41:15;;;;;;;2.33;2.10;;;15.50;65.70;;;;;;5037386;28;20512;-72
2022/10/05 06:43:54;;;;;;;2.37;2.03;;;15.50;65.70;;;;;;5027091;28;20466;-72
2022/10/05 06:46:46;;;;;;;2.17;1.93;;;15.50;65.50;;;;;;5045571;28;20461;-72
2022/10/05 06:49:53;;;;;;;2.30;1.93;;;15.50;65.70;;;;;;5042444;28;20560;-72
2022/10/05 06:52:51;;;;;;;2.00;1.90;;;15.50;65.50;;;;;;5019837;28;20443;-72
2022/10/05 06:55:30;;;;;;;2.47;2.27;;;15.50;65.50;;;;;;5024152;28;20469;-72
2022/10/05 06:58:19;;;;;;;3.47;2.30;;;15.50;65.90;;;;;;5046596;28;20462;-72
2022/10/05 07:00:54;;;;;;;2.60;2.40;;;15.50;65.50;;;;;;5049590;28;20513;-72
2022/10/05 07:03:35;;;;;;;2.50;2.30;;;15.50;65.60;;;;;;5016485;28;20459;-72
2022/10/05 07:06:13;;;;;;;2.40;2.20;;;15.50;65.50;;;;;;5031561;28;20793;-72
2022/10/05 07:08:54;;;;;;;2.13;1.90;;;15.50;65.60;;;;;;5024249;28;20546;-72
2022/10/05 07:11:47;;;;;;;2.30;2.10;;;15.50;65.50;;;;;;5046469;28;20431;-72
2022/10/05 07:14:35;;;;;;;1.77;1.67;;;15.50;65.40;;;;;;5039895;28;20463;-73
2022/10/05 07:17:34;;;;;;;2.47;2.30;;;15.50;65.60;;;;;;5035821;28;21032;-70
2022/10/05 07:20:16;;;;;;;1.80;1.70;;;15.50;66.50;;;;;;5023157;28;20479;-71
2022/10/05 07:23:02;;;;;;;2.20;2.00;;;15.50;65.90;;;;;;5020680;28;20463;-72
2022/10/05 07:25:37;;;;;;;1.70;1.60;;;15.50;65.80;;;;;;5033882;28;20455;-73
2022/10/05 07:28:09;;;;;;;2.30;1.97;;;15.50;65.80;;;;;;5037697;28;20474;-72
2022/10/05 07:30:47;;;;;;;2.30;2.10;;;15.50;65.80;;;;;;5014986;28;20824;-72
2022/10/05 07:33:24;;;;;;;2.43;2.23;;;15.50;66.30;;;;;;5031069;28;20870;-72
2022/10/05 07:38:54;;;;;;;2.20;2.10;;;15.50;66.20;;;;;;5048176;28;20988;-72
2022/10/05 07:41:34;;;;;;;2.10;1.70;;;15.50;66.60;;;;;;5031182;28;20475;-71
2022/10/05 07:44:13;;;;;;;1.90;1.80;;;15.50;66.30;;;;;;5023007;28;20428;-73
2022/10/05 07:46:56;;;;;;;2.03;1.83;;;15.50;66.20;;;;;;5031468;28;20463;-72
2022/10/05 07:49:36;;;;;;;2.60;2.03;;;15.50;66.50;;;;;;5023865;28;20475;-72
2022/10/05 07:52:12;;;;;;;4.47;2.40;;;15.50;66.10;;;;;;5022375;28;20431;-72
2022/10/05 07:54:55;;;;;;;1.47;1.37;;;15.50;66.60;;;;;;5013425;28;20984;-72
2022/10/05 07:57:39;;;;;;;1.93;1.63;;;15.50;65.70;;;;;;5040001;28;20974;-72
2022/10/05 08:00:13;;;;;;;2.00;1.73;;;15.50;66.40;;;;;;5038024;28;20460;-72
2022/10/05 08:02:50;;;;;;;1.60;1.50;;;15.50;66.20;;;;;;5027990;28;20974;-72
2022/10/05 08:05:24;;;;;;;1.83;1.73;;;15.50;67.40;;;;;;5035214;28;20995;-72
2022/10/05 08:07:59;;;;;;;2.10;1.90;;;15.50;66.10;;;;;;5029525;28;20460;-72
2022/10/05 08:10:39;;;;;;;1.50;1.40;;;15.50;65.70;;;;;;5029602;28;20461;-72
2022/10/05 08:13:16;;;;;;;1.53;1.43;;;15.50;65.50;;;;;;5019098;28;20607;-72
2022/10/05 08:15:50;;;;;;;1.90;1.70;;;15.50;65.70;;;;;;5044166;28;20470;-70
2022/10/05 08:18:37;;;;;;;2.20;1.30;;;15.50;65.30;;;;;;5020617;28;20466;-72
2022/10/05 08:21:10;;;;;;;1.67;1.50;;;15.50;65.50;;;;;;5036953;28;20477;-72
2022/10/05 08:23:43;;;;;;;1.47;1.30;;;15.50;65.30;;;;;;5029227;28;20978;-72
2022/10/05 08:26:22;;;;;;;1.57;1.43;;;15.50;65.20;;;;;;5051801;28;20504;-72
2022/10/05 08:29:01;;;;;;;1.67;1.57;;;15.50;65.20;;;;;;5022839;28;20550;-72
2022/10/05 08:31:34;;;;;;;1.37;1.27;;;15.50;65.50;;;;;;5024107;28;20511;-72
2022/10/05 08:34:19;;;;;;;1.80;1.70;;;15.50;65.20;;;;;;5039298;28;20432;-72
2022/10/05 08:36:56;;;;;;;1.33;1.23;;;15.60;65.40;;;;;;5029776;28;20447;-72
2022/10/05 08:39:28;;;;;;;1.63;1.53;;;15.50;65.40;;;;;;5026808;28;20459;-72
2022/10/05 08:42:33;;;;;;;1.73;1.63;;;15.50;65.20;;;;;;5030203;28;20476;-73
2022/10/05 08:45:30;;;;;;;2.30;1.60;;;15.60;65.10;;;;;;5028308;28;20432;-72
2022/10/05 08:48:28;;;;;;;2.40;1.90;;;15.80;64.90;;;;;;5045374;28;20706;-72
2022/10/05 08:51:21;;;;;;;1.93;1.83;;;15.90;64.60;;;;;;5016203;28;20785;-72
2022/10/05 08:54:26;;;;;;;2.00;1.77;;;16.00;64.40;;;;;;5029894;28;20453;-72
2022/10/05 08:57:21;;;;;;;2.30;1.87;;;16.10;64.40;;;;;;5038554;28;20470;-72
2022/10/05 09:00:09;;;;;;;2.80;1.87;;;16.10;64.20;;;;;;4981637;28;20451;-72
2022/10/05 09:03:05;;;;;;;1.77;1.67;;;16.20;64.70;;;;;;5024709;28;20528;-72
2022/10/05 09:06:13;;;;;;;1.90;1.80;;;16.20;64.80;;;;;;5034205;28;20466;-72
2022/10/05 09:09:12;;;;;;;2.27;2.07;;;16.20;64.70;;;;;;5047498;28;20447;-72
2022/10/05 09:11:47;;;;;;;2.30;2.10;;;16.20;64.90;;;;;;5029059;28;20443;-72
2022/10/05 09:14:31;;;;;;;2.30;2.10;;;16.20;65.10;;;;;;5049484;28;20462;-72
2022/10/05 09:17:20;;;;;;;1.93;1.43;;;16.20;65.20;;;;;;5047738;28;20470;-71
2022/10/05 09:20:29;;;;;;;1.87;1.63;;;16.20;65.20;;;;;;5025117;28;20542;-71
2022/10/05 09:23:00;;;;;;;1.63;1.53;;;16.20;65.70;;;;;;5048553;28;20455;-71
2022/10/05 09:25:42;;;;;;;2.03;1.80;;;16.20;65.40;;;;;;5033266;28;20455;-72
2022/10/05 09:28:23;;;;;;;2.20;2.00;;;16.30;65.70;;;;;;5057476;23;20516;-71
2022/10/05 09:30:58;;;;;;;2.07;1.87;;;16.20;65.70;;;;;;4992900;28;20449;-73
2022/10/05 09:34:00;;;;;;;5.13;1.87;;;16.30;65.80;;;;;;4994364;28;20439;-72
2022/10/05 09:37:21;;;;;;;2.20;1.70;;;16.30;65.70;;;;;;4991863;28;20974;-72
2022/10/05 09:40:31;;;;;;;3.03;2.30;;;16.30;66.10;;;;;;5010927;28;20465;-73
2022/10/05 09:43:18;;;;;;;1.87;1.77;;;16.30;66.30;;;;;;4989080;28;20477;-70
2022/10/05 09:46:23;;;;;;;2.37;1.60;;;16.30;66.30;;;;;;4978466;28;20811;-72
2022/10/05 09:49:20;;;;;;;2.27;1.80;;;16.20;66.40;;;;;;4993311;28;20529;-73
2022/10/05 09:52:11;;;;;;;2.50;2.30;;;16.20;66.50;;;;;;4990544;28;20444;-73
2022/10/05 09:55:28;;;;;;;2.33;1.80;;;16.20;66.60;;;;;;5011260;28;20996;-72
2022/10/05 09:58:34;;;;;;;1.97;1.87;;;16.20;66.70;;;;;;4974378;28;20552;-73
2022/10/05 10:01:18;;;;;;;3.07;2.20;;;16.20;66.80;;;;;;4993635;28;20475;-71
2022/10/05 10:04:34;;;;;;;2.73;2.53;;;16.20;67.10;;;;;;5000806;28;20570;-73
2022/10/05 10:07:35;;;;;;;2.47;1.80;;;16.20;67.30;;;;;;4983347;28;20517;-73
2022/10/05 10:10:33;;;;;;;2.90;2.47;;;16.20;67.30;;;;;;4992577;28;20571;-71
2022/10/05 10:13:40;;;;;;;3.37;2.60;;;16.20;67.30;;;;;;5010376;28;20449;-72
2022/10/05 10:16:30;;;;;;;2.50;2.00;;;16.10;67.40;;;;;;4971326;28;20473;-73
2022/10/05 10:19:22;;;;;;;2.40;1.93;;;16.10;67.70;;;;;;4991485;28;20508;-72
2022/10/05 10:22:32;;;;;;;2.33;2.00;;;16.10;67.30;;;;;;4993533;28;20431;-73
2022/10/05 10:25:30;;;;;;;2.30;1.67;;;16.10;67.50;;;;;;4946741;28;20465;-72
2022/10/05 10:28:33;;;;;;;2.00;1.90;;;16.10;67.30;;;;;;5019235;28;20556;-72
2022/10/05 10:31:32;;;;;;;2.43;2.03;;;16.10;67.40;;;;;;4993108;28;20459;-72
2022/10/05 10:34:17;;;;;;;2.33;1.83;;;16.10;67.40;;;;;;5000206;28;20470;-73
2022/10/05 10:37:03;;;;;;;3.30;2.20;;;16.10;67.60;;;;;;4991898;28;20473;-72
2022/10/05 10:39:50;;;;;;;2.40;2.20;;;16.20;67.60;;;;;;5012469;28;21159;-73
2022/10/05 10:42:33;;;;;;;2.17;2.07;;;16.20;67.90;;;;;;5005007;28;20762;-71
2022/10/05 10:45:27;;;;;;;2.37;1.83;;;16.10;67.70;;;;;;4991450;28;20476;-72
2022/10/05 10:48:03;;;;;;;2.10;1.60;;;16.20;67.80;;;;;;5013024;28;20453;-72
2022/10/05 10:51:04;;;;;;;2.27;1.80;;;16.10;67.70;;;;;;4989013;28;20897;-71
2022/10/05 10:54:15;;;;;;;3.10;1.97;;;16.20;67.70;;;;;;4968721;28;20471;-73
2022/10/05 10:56:54;;;;;;;1.77;1.67;;;16.30;69.90;;;;;;5003255;28;20471;-72
2022/10/05 10:59:57;;;;;;;2.00;1.67;;;16.30;69.80;;;;;;5005373;28;21992;-72
2022/10/05 11:02:46;;;;;;;2.13;1.83;;;16.30;69.60;;;;;;5006050;28;20466;-72
2022/10/05 11:05:38;;;;;;;2.30;2.07;;;16.30;69.70;;;;;;5006329;28;20554;-71
2022/10/05 11:09:03;;;;;;;4.10;1.97;;;16.30;69.50;;;;;;4989778;28;20441;-71
2022/10/05 11:12:20;;;;;;;2.50;2.30;;;16.30;69.80;;;;;;4994510;28;20441;-73
2022/10/05 11:15:09;;;;;;;2.80;2.60;;;16.20;69.40;;;;;;4962261;28;20480;-71
2022/10/05 11:18:02;;;;;;;3.40;2.57;;;16.20;69.50;;;;;;4996101;28;20453;-72
2022/10/05 11:21:09;;;;;;;3.90;2.90;;;16.20;69.50;;;;;;4991834;28;20465;-73
2022/10/05 11:24:20;;;;;;;5.33;3.50;;;16.20;69.60;;;;;;4994971;28;21088;-72
2022/10/05 11:27:16;;;;;;;5.60;3.40;;;16.20;69.50;;;;;;5002637;28;20492;-73
2022/10/05 11:30:34;;;;;;;5.03;3.77;;;16.20;69.50;;;;;;5007892;28;20465;-72
2022/10/05 11:33:42;;;;;;;5.40;4.03;;;16.20;69.70;;;;;;5000375;28;20465;-73
2022/10/05 11:36:52;;;;;;;2.93;2.63;;;16.20;69.70;;;;;;4959004;28;20999;-73
2022/10/05 11:39:54;;;;;;;3.20;2.20;;;16.20;69.90;;;;;;4980771;28;20465;-71
2022/10/05 11:42:54;;;;;;;2.30;2.10;;;16.30;69.80;;;;;;5008740;28;20920;-74
2022/10/05 11:45:36;;;;;;;3.07;2.30;;;16.30;69.80;;;;;;5007263;28;20508;-74
2022/10/05 11:48:27;;;;;;;2.40;2.00;;;16.30;69.70;;;;;;4989813;28;20468;-74
2022/10/05 11:51:34;;;;;;;2.93;2.60;;;16.30;69.70;;;;;;5005850;28;20556;-75
2022/10/05 11:54:28;;;;;;;2.43;2.20;;;16.30;69.60;;;;;;4924329;29;20442;-75
2022/10/05 11:57:20;;;;;;;2.93;2.00;;;16.30;69.50;;;;;;4997034;28;20468;-75
2022/10/05 11:59:59;;;;;;;3.47;2.30;;;16.40;69.60;;;;;;5003572;28;20906;-74
2022/10/05 12:03:11;;;;;;;2.87;2.60;;;16.40;69.60;;;;;;4988997;28;20437;-75
2022/10/05 12:06:02;;;;;;;1.80;1.70;;;16.30;69.70;;;;;;5001227;28;21018;-70
2022/10/05 12:08:42;;;;;;;2.13;1.93;;;16.40;70.00;;;;;;5001783;28;21318;-72
2022/10/05 12:11:35;;;;;;;2.23;2.03;;;16.40;69.50;;;;;;4999699;28;20448;-73
2022/10/05 12:14:19;;;;;;;3.53;2.27;;;16.40;69.40;;;;;;5002860;28;21305;-71
2022/10/05 12:16:57;;;;;;;3.60;2.03;;;16.40;69.40;;;;;;4989120;28;20584;-72
2022/10/05 12:19:35;;;;;;;3.30;1.97;;;16.30;69.50;;;;;;4991934;28;20928;-73
2022/10/05 12:22:14;;;;;;;2.40;2.20;;;16.40;69.90;;;;;;5008422;28;20511;-71
2022/10/05 12:25:02;;;;;;;2.80;2.40;;;16.40;69.90;;;;;;4989886;28;20472;-73
2022/10/05 12:27:37;;;;;;;3.87;1.90;;;16.40;69.90;;;;;;4999735;28;21129;-73
2022/10/05 12:30:14;;;;;;;3.30;1.97;;;16.40;70.00;;;;;;4988577;28;20495;-71
2022/10/05 12:32:56;;;;;;;2.23;2.00;;;16.40;70.10;;;;;;5007871;28;20850;-72
2022/10/05 12:35:35;;;;;;;2.37;1.80;;;16.40;70.30;;;;;;4981669;28;20543;-72
2022/10/05 12:38:27;;;;;;;1.97;1.77;;;16.40;70.20;;;;;;5005209;28;20469;-73
2022/10/05 12:41:05;;;;;;;2.83;1.90;;;16.40;70.20;;;;;;4990131;28;20440;-74
2022/10/05 12:43:43;;;;;;;2.50;1.93;;;16.40;70.20;;;;;;4989657;28;20470;-71
2022/10/05 12:46:25;;;;;;;2.50;1.80;;;16.40;70.40;;;;;;4989930;28;20507;-71
2022/10/05 12:49:28;;;;;;;1.80;1.30;;;16.40;70.30;;;;;;4987042;28;20492;-73
2022/10/05 12:52:01;;;;;;;1.77;1.60;;;16.40;70.10;;;;;;4974306;28;20449;-73
2022/10/05 12:54:42;;;;;;;2.20;2.00;;;16.40;70.40;;;;;;4997783;28;20555;-73
2022/10/05 12:57:19;;;;;;;2.63;1.90;;;16.50;70.50;;;;;;4999736;28;20496;-72
2022/10/05 12:59:56;;;;;;;2.80;2.37;;;16.50;70.40;;;;;;4989183;28;21003;-72
2022/10/05 13:02:40;;;;;;;2.30;2.10;;;16.50;70.30;;;;;;5000143;28;20443;-73
2022/10/05 13:05:21;;;;;;;4.27;2.17;;;16.50;70.20;;;;;;5007697;28;20484;-72
2022/10/05 13:08:09;;;;;;;2.10;1.90;;;16.50;70.20;;;;;;4998411;28;20804;-71
2022/10/05 13:10:45;;;;;;;2.40;2.20;;;16.50;70.20;;;;;;4988822;28;20457;-71
2022/10/05 13:13:32;;;;;;;2.43;2.23;;;16.50;70.00;;;;;;4975987;28;20468;-72
2022/10/05 13:16:14;;;;;;;3.97;2.30;;;16.50;70.00;;;;;;4990739;28;20436;-72
2022/10/05 13:19:07;;;;;;;4.60;2.30;;;16.50;69.90;;;;;;5002150;28;20492;-72
2022/10/05 13:21:57;;;;;;;2.77;2.20;;;16.60;70.00;;;;;;5003882;28;20429;-72
2022/10/05 13:24:30;;;;;;;3.00;1.83;;;16.60;70.00;;;;;;4986324;28;20471;-72
2022/10/05 13:27:07;;;;;;;2.07;1.93;;;16.60;70.00;;;;;;4999051;28;20503;-72
2022/10/05 13:29:45;;;;;;;2.50;2.00;;;16.60;70.10;;;;;;5004932;28;20475;-72
2022/10/05 13:32:24;;;;;;;2.70;2.50;;;16.60;70.00;;;;;;4997723;28;20540;-71
2022/10/05 13:35:01;;;;;;;2.37;2.17;;;16.60;71.10;;;;;;5006023;28;20480;-72
2022/10/05 13:37:49;;;;;;;2.50;2.00;;;16.60;69.90;;;;;;4989622;28;20465;-71
2022/10/05 13:40:24;;;;;;;2.60;2.03;;;16.60;69.80;;;;;;4981765;28;20551;-71
2022/10/05 13:43:02;;;;;;;2.57;2.13;;;16.60;69.70;;;;;;5006664;28;20863;-72
2022/10/05 13:45:41;;;;;;;2.50;1.80;;;16.60;69.80;;;;;;5006771;28;22533;-71
2022/10/05 13:48:19;;;;;;;5.60;2.40;;;16.60;69.90;;;;;;4992569;28;20517;-68
2022/10/05 13:51:00;;;;;;;3.23;1.83;;;16.60;70.10;;;;;;5015194;28;20944;-68
2022/10/05 13:53:37;;;;;;;1.97;1.70;;;16.70;70.40;;;;;;4992140;28;20433;-68
2022/10/05 13:56:15;;;;;;;2.73;2.47;;;16.70;70.50;;;;;;5019597;28;20502;-68
2022/10/05 13:58:49;;;;;;;2.07;1.60;;;16.70;70.50;;;;;;5018130;28;21025;-68
2022/10/05 14:01:24;;;;;;;3.00;2.13;;;16.70;70.50;;;;;;5004065;28;20441;-68
2022/10/05 14:04:14;;;;;;;1.60;1.50;;;16.70;70.70;;;;;;4993264;28;20464;-67
2022/10/05 14:06:45;;;;;;;2.80;2.20;;;16.70;70.70;;;;;;4984157;28;20544;-68
2022/10/05 14:09:29;;;;;;;3.40;1.60;;;16.70;70.80;;;;;;4986792;28;20477;-67
2022/10/05 14:12:14;;;;;;;2.60;1.83;;;16.80;72.40;;;;;;4991533;28;20494;-66
2022/10/05 14:14:49;;;;;;;2.67;2.40;;;16.70;71.00;;;;;;5003662;28;20980;-66